Time;durP1;ratioP1;P1;durP2;ratioP2;P2;SDS_P1;SDS_P2;PMS_P1;PMS_P2;Temp;Humidity;BMP_temperature;BMP_pressure;BME280_temperature;BME280_humidity;BME280_pressure;Samples;Min_cycle;Max_cycle;Signal;HPM_P1;HPM_P2
2023/07/03 00:00:42;;;;;;;4.15;2.55;;;;;;;20.96;60.33;99307.34;4407372;32;20097;-88
2023/07/03 00:03:08;;;;;;;5.35;2.60;;;;;;;20.90;60.32;99322.87;4417544;32;20136;-87
2023/07/03 00:05:35;;;;;;;6.35;2.62;;;;;;;20.58;60.31;99320.16;4399609;32;20136;-89
2023/07/03 00:08:00;;;;;;;5.65;2.78;;;;;;;20.81;60.33;99309.41;4401359;32;20157;-89
2023/07/03 00:10:25;;;;;;;4.35;2.83;;;;;;;20.49;60.31;99314.66;4406557;32;20081;-87
2023/07/03 00:12:51;;;;;;;4.80;3.12;;;;;;;20.54;60.30;99317.75;4402573;32;20160;-88
2023/07/03 00:15:16;;;;;;;9.02;2.92;;;;;;;20.50;60.30;99318.97;4434071;32;20143;-88
2023/07/03 00:17:45;;;;;;;8.75;3.33;;;;;;;20.78;60.32;99325.53;4398246;32;20450;-89
2023/07/03 00:20:13;;;;;;;8.90;2.78;;;;;;;20.72;60.32;99320.75;4408565;32;20143;-89
2023/07/03 00:22:42;;;;;;;4.65;2.72;;;;;;;20.68;60.31;99326.41;4418252;32;20136;-88
2023/07/03 00:25:08;;;;;;;5.40;2.28;;;;;;;20.70;60.32;99320.03;4410158;32;20113;-87
2023/07/03 00:27:33;;;;;;;8.52;3.10;;;;;;;20.54;60.31;99324.88;4405129;32;20093;-89
2023/07/03 00:29:59;;;;;;;5.15;2.83;;;;;;;20.46;60.30;99327.28;4398004;32;20101;-91
2023/07/03 00:32:26;;;;;;;6.60;2.62;;;;;;;20.51;60.31;99327.75;4410389;32;20424;-88
2023/07/03 00:34:51;;;;;;;5.12;2.95;;;;;;;20.46;60.30;99329.94;4413914;32;20101;-89
2023/07/03 00:37:17;;;;;;;5.65;3.03;;;;;;;20.36;60.30;99335.09;4415142;32;20237;-88
2023/07/03 00:39:43;;;;;;;4.90;2.75;;;;;;;20.42;60.30;99336.44;4434546;32;20166;-89
2023/07/03 00:42:09;;;;;;;6.35;3.08;;;;;;;20.27;60.30;99335.78;4425041;32;20100;-87
2023/07/03 00:44:34;;;;;;;4.37;2.95;;;;;;;19.95;60.28;99340.94;4396987;32;20109;-88
2023/07/03 00:47:00;;;;;;;4.75;2.80;;;;;;;20.20;60.29;99339.88;4397224;32;20212;-89
2023/07/03 00:49:25;;;;;;;6.47;3.05;;;;;;;20.20;60.29;99334.59;4409325;32;20118;-88
2023/07/03 00:51:52;;;;;;;7.45;3.90;;;;;;;20.29;60.29;99339.16;4422935;32;23667;-89
2023/07/03 00:54:18;;;;;;;6.65;3.17;;;;;;;20.28;60.29;99336.63;4410182;32;20106;-90
2023/07/03 00:56:43;;;;;;;6.68;3.70;;;;;;;20.18;60.30;99332.06;4421242;32;20108;-89
2023/07/03 00:59:09;;;;;;;8.13;3.22;;;;;;;20.10;60.29;99336.25;4395984;32;20125;-90
2023/07/03 01:01:43;;;;;;;9.52;3.12;;;;;;;20.24;60.30;99334.22;4395930;32;20133;-90
2023/07/03 01:04:13;;;;;;;5.90;3.20;;;;;;;20.40;60.31;99336.56;4410039;32;20094;-88
2023/07/03 01:06:41;;;;;;;5.80;3.40;;;;;;;20.24;60.30;99331.59;4408671;32;20098;-87
2023/07/03 01:09:07;;;;;;;5.12;3.33;;;;;;;20.28;60.30;99336.63;4396381;32;20147;-88
2023/07/03 01:11:32;;;;;;;7.62;3.03;;;;;;;20.29;60.30;99335.66;4395994;32;20153;-87
2023/07/03 01:13:59;;;;;;;5.57;3.30;;;;;;;20.34;60.30;99328.22;4407992;32;23759;-87
2023/07/03 01:16:24;;;;;;;8.05;3.33;;;;;;;20.23;60.30;99335.19;4395703;32;20081;-88
2023/07/03 01:18:50;;;;;;;5.57;3.22;;;;;;;20.33;60.30;99337.94;4408413;32;20220;-87
2023/07/03 01:21:21;;;;;;;7.22;3.92;;;;;;;20.23;60.29;99334.34;4395484;32;20436;-86
2023/07/03 01:23:53;;;;;;;8.25;3.78;;;;;;;20.40;60.30;99340.97;4383697;32;20175;-88
2023/07/03 01:26:18;;;;;;;7.47;3.80;;;;;;;20.36;60.30;99335.09;4383688;32;20094;-87
2023/07/03 01:28:44;;;;;;;6.25;3.47;;;;;;;20.30;60.30;99343.47;4408509;32;20352;-87
2023/07/03 01:31:09;;;;;;;5.72;3.22;;;;;;;20.46;60.31;99330.78;4408269;32;20145;-88
2023/07/03 01:33:35;;;;;;;5.35;3.42;;;;;;;20.26;60.29;99331.47;4408470;32;20102;-87
2023/07/03 01:36:00;;;;;;;6.57;3.62;;;;;;;20.24;60.30;99339.50;4408351;32;20122;-88
2023/07/03 01:38:26;;;;;;;6.68;3.37;;;;;;;20.31;60.29;99331.94;4408788;32;20372;-87
2023/07/03 01:40:52;;;;;;;5.20;3.15;;;;;;;19.93;60.28;99334.94;4408197;32;20166;-87
2023/07/03 01:43:18;;;;;;;7.25;3.58;;;;;;;19.96;60.28;99336.50;4408425;32;20432;-88
2023/07/03 01:45:44;;;;;;;7.18;3.87;;;;;;;19.91;60.27;99327.12;4394841;32;20118;-88
2023/07/03 01:48:10;;;;;;;5.80;3.47;;;;;;;20.01;60.28;99332.53;4408755;32;20168;-88
2023/07/03 01:50:35;;;;;;;8.73;3.67;;;;;;;20.15;60.29;99329.69;4409624;32;20114;-88
2023/07/03 01:53:28;;;;;;;7.53;4.37;;;;;;;20.05;60.28;99328.69;4419541;32;20165;-88
2023/07/03 01:56:08;;;;;;;7.72;3.55;;;;;;;20.16;60.29;99327.88;4397008;32;20094;-88
2023/07/03 01:58:46;;;;;;;8.65;3.78;;;;;;;20.09;60.28;99331.94;4395731;32;20124;-87
2023/07/03 02:01:50;;;;;;;7.50;3.80;;;;;;;20.08;60.29;99330.25;4395873;32;20364;-88
2023/07/03 02:04:30;;;;;;;7.20;3.90;;;;;;;19.93;60.28;99338.44;4409785;32;20447;-88
2023/07/03 02:06:56;;;;;;;7.65;3.95;;;;;;;19.99;60.28;99338.91;4396714;32;20121;-88
2023/07/03 02:09:21;;;;;;;6.72;3.65;;;;;;;19.90;60.27;99333.38;4395584;32;20106;-88
2023/07/03 02:11:47;;;;;;;5.90;3.53;;;;;;;19.92;60.27;99325.34;4395574;32;20157;-88
2023/07/03 02:14:13;;;;;;;7.03;4.30;;;;;;;19.80;60.27;99337.66;4382977;32;20186;-89
2023/07/03 02:16:41;;;;;;;6.40;3.90;;;;;;;19.85;60.28;99329.38;4395407;32;20146;-88
2023/07/03 02:19:07;;;;;;;7.45;4.00;;;;;;;19.62;60.25;99334.62;4396067;32;20109;-88
2023/07/03 02:21:35;;;;;;;7.53;4.40;;;;;;;19.77;60.27;99337.06;4395532;32;20141;-88
2023/07/03 02:24:00;;;;;;;7.45;3.97;;;;;;;19.96;60.27;99333.84;4408597;32;20431;-89
2023/07/03 02:26:26;;;;;;;8.27;3.78;;;;;;;19.98;60.27;99335.41;4395645;32;20120;-88
2023/07/03 02:28:51;;;;;;;8.65;4.15;;;;;;;19.73;60.26;99343.53;4407921;32;20124;-88
2023/07/03 02:31:17;;;;;;;6.68;4.00;;;;;;;19.79;60.27;99341.28;4395567;32;20256;-90
2023/07/03 02:33:42;;;;;;;10.18;4.35;;;;;;;19.84;60.27;99339.13;4394965;32;23489;-88
2023/07/03 02:36:07;;;;;;;6.85;4.07;;;;;;;19.85;60.27;99348.72;4409147;32;20110;-87
2023/07/03 02:38:33;;;;;;;6.57;3.80;;;;;;;19.74;60.26;99345.22;4408045;32;20431;-89
2023/07/03 02:40:58;;;;;;;6.87;3.83;;;;;;;19.95;60.28;99355.97;4408088;32;20121;-89
2023/07/03 02:43:24;;;;;;;8.48;3.83;;;;;;;19.90;60.28;99351.88;4408478;32;20121;-89
2023/07/03 02:45:49;;;;;;;6.53;4.12;;;;;;;19.74;60.27;99353.16;4394558;32;28063;-88
2023/07/03 02:48:15;;;;;;;9.73;4.20;;;;;;;19.88;60.27;99351.16;4395291;32;20150;-88
2023/07/03 02:50:40;;;;;;;8.32;4.25;;;;;;;20.03;60.28;99349.12;4407980;32;20181;-88
2023/07/03 02:53:07;;;;;;;8.27;4.30;;;;;;;19.76;60.26;99346.78;4395376;32;20265;-90
2023/07/03 02:55:32;;;;;;;5.65;3.78;;;;;;;19.76;60.26;99348.59;4407861;32;20478;-89
2023/07/03 02:57:58;;;;;;;10.15;3.83;;;;;;;19.93;60.27;99359.56;4407551;32;20112;-90
2023/07/03 03:00:24;;;;;;;8.85;4.95;;;;;;;19.94;60.28;99363.03;4408527;32;20121;-89
2023/07/03 03:02:49;;;;;;;8.00;3.90;;;;;;;19.95;60.28;99367.38;4395610;32;20159;-88
2023/07/03 03:05:15;;;;;;;6.80;3.75;;;;;;;20.00;60.27;99364.38;4407759;32;20093;-88
2023/07/03 03:07:40;;;;;;;7.82;4.22;;;;;;;19.98;60.28;99361.00;4408024;32;20121;-88
2023/07/03 03:10:06;;;;;;;9.52;4.28;;;;;;;20.10;60.29;99367.97;4407786;32;20131;-88
2023/07/03 03:12:32;;;;;;;9.07;4.35;;;;;;;19.93;60.28;99358.72;4409078;32;20066;-88
2023/07/03 03:14:57;;;;;;;10.82;4.30;;;;;;;19.92;60.28;99352.59;4407604;32;20151;-88
2023/07/03 03:17:23;;;;;;;6.32;3.90;;;;;;;19.81;60.26;99352.56;4395115;32;20148;-87
2023/07/03 03:19:48;;;;;;;8.68;4.03;;;;;;;19.76;60.26;99353.87;4395546;32;24655;-89
2023/07/03 03:22:13;;;;;;;7.53;4.00;;;;;;;19.83;60.26;99352.44;4394827;32;20170;-89
2023/07/03 03:24:39;;;;;;;9.95;4.25;;;;;;;19.72;60.26;99352.44;4395002;32;20097;-88
2023/07/03 03:27:06;;;;;;;8.80;4.35;;;;;;;19.91;60.26;99364.12;4407822;32;20098;-88
2023/07/03 03:29:40;;;;;;;6.40;3.65;;;;;;;19.92;60.27;99359.69;4407659;32;20117;-88
2023/07/03 03:32:07;;;;;;;8.68;4.32;;;;;;;19.88;60.27;99367.00;4407850;32;20106;-88
2023/07/03 03:34:35;;;;;;;9.95;4.55;;;;;;;20.12;60.27;99364.28;4408532;32;20131;-88
2023/07/03 03:37:01;;;;;;;7.78;3.85;;;;;;;20.14;60.28;99366.78;4396828;32;20106;-89
2023/07/03 03:39:27;;;;;;;5.90;3.28;;;;;;;20.29;60.29;99365.59;4402748;32;20111;-89
2023/07/03 03:41:52;;;;;;;9.40;4.68;;;;;;;20.16;60.29;99365.72;4410218;32;20145;-89
2023/07/03 03:44:17;;;;;;;7.80;4.25;;;;;;;20.30;60.29;99358.50;4395022;32;20105;-89
2023/07/03 03:46:43;;;;;;;7.60;4.00;;;;;;;20.28;60.29;99363.06;4407431;32;20098;-90
2023/07/03 03:49:11;;;;;;;13.30;4.87;;;;;;;20.20;60.29;99367.16;4407705;32;20158;-88
2023/07/03 03:51:37;;;;;;;7.85;3.45;;;;;;;20.33;60.29;99368.81;4395059;32;20110;-89
2023/07/03 03:54:03;;;;;;;5.75;3.15;;;;;;;20.29;60.29;99365.59;4394922;32;20089;-89
2023/07/03 03:56:28;;;;;;;9.23;4.15;;;;;;;20.36;60.29;99380.03;4408534;32;20091;-89
2023/07/03 03:58:53;;;;;;;9.45;4.30;;;;;;;20.27;60.29;99370.16;4422618;32;20118;-89
2023/07/03 04:01:19;;;;;;;8.00;4.43;;;;;;;20.45;60.29;99378.47;4409482;32;20149;-90
2023/07/03 04:03:44;;;;;;;10.02;4.60;;;;;;;20.38;60.29;99370.16;4409906;32;20133;-89
2023/07/03 04:06:10;;;;;;;6.35;3.65;;;;;;;20.67;60.31;99378.47;4409727;32;20556;-90
2023/07/03 04:08:35;;;;;;;6.68;3.35;;;;;;;20.83;60.31;99375.44;4421994;32;20443;-89
2023/07/03 04:11:01;;;;;;;7.05;4.00;;;;;;;20.74;60.31;99384.09;4422258;32;20105;-89
2023/07/03 04:13:27;;;;;;;7.80;4.22;;;;;;;20.51;60.30;99385.94;4397192;32;20105;-88
2023/07/03 04:15:52;;;;;;;7.07;4.12;;;;;;;20.63;60.31;99382.31;4409452;32;20153;-89
2023/07/03 04:18:21;;;;;;;7.93;4.00;;;;;;;20.71;60.31;99384.34;4409781;32;20105;-91
2023/07/03 04:20:46;;;;;;;7.05;3.55;;;;;;;20.71;60.31;99390.47;4397365;32;20132;-90
2023/07/03 04:23:12;;;;;;;7.15;4.35;;;;;;;20.85;60.33;99389.41;4397105;32;20097;-89
2023/07/03 04:25:37;;;;;;;8.05;3.90;;;;;;;20.89;60.33;99395.28;4422158;32;20101;-88
2023/07/03 04:28:03;;;;;;;9.50;4.78;;;;;;;20.69;60.31;99399.50;4409684;32;20206;-88
2023/07/03 04:30:28;;;;;;;13.00;4.80;;;;;;;20.95;60.33;99395.62;4423362;32;20123;-88
2023/07/03 04:32:54;;;;;;;9.88;4.47;;;;;;;21.13;60.33;99403.88;4422373;32;20125;-89
2023/07/03 04:35:20;;;;;;;17.30;3.95;;;;;;;21.15;60.33;99401.94;4409169;32;20466;-89
2023/07/03 04:37:46;;;;;;;17.70;5.15;;;;;;;21.29;60.34;99398.19;4409534;32;20129;-89
2023/07/03 04:40:12;;;;;;;12.23;4.57;;;;;;;21.35;60.34;99401.19;4422053;32;20097;-88
2023/07/03 04:42:38;;;;;;;7.95;4.03;;;;;;;21.49;60.36;99399.22;4409527;32;20109;-88
2023/07/03 04:45:06;;;;;;;8.63;4.07;;;;;;;21.46;60.35;99395.00;4409187;32;20143;-87
2023/07/03 04:47:31;;;;;;;9.98;3.72;;;;;;;21.69;60.36;99399.22;4422136;32;20175;-88
2023/07/03 04:49:58;;;;;;;10.05;3.65;;;;;;;21.63;60.37;99398.91;4409781;32;20455;-89
2023/07/03 04:52:27;;;;;;;8.52;4.15;;;;;;;21.54;60.35;99397.03;4422088;32;20089;-88
2023/07/03 04:54:53;;;;;;;6.90;4.32;;;;;;;21.45;60.35;99401.28;4423506;32;20089;-90
2023/07/03 04:57:19;;;;;;;7.43;4.07;;;;;;;21.47;60.36;99407.28;4409014;32;20106;-89
2023/07/03 04:59:44;;;;;;;10.52;3.60;;;;;;;21.49;60.35;99397.41;4409142;32;20178;-90
2023/07/03 05:02:12;;;;;;;9.77;3.85;;;;;;;21.75;60.37;99397.88;4409187;32;20119;-90
2023/07/03 05:04:37;;;;;;;8.15;4.32;;;;;;;21.78;60.37;99404.75;4409125;32;20105;-89
2023/07/03 05:07:03;;;;;;;7.60;3.65;;;;;;;21.90;60.38;99411.66;4408864;32;20409;-90
2023/07/03 05:09:29;;;;;;;8.35;4.28;;;;;;;22.16;60.39;99420.94;4410606;32;20118;-91
2023/07/03 05:12:08;;;;;;;12.48;4.15;;;;;;;22.22;60.39;99408.94;4422110;32;20123;-90
2023/07/03 05:14:35;;;;;;;6.97;3.60;;;;;;;22.22;60.40;99409.78;4409186;32;20725;-90
2023/07/03 05:17:02;;;;;;;7.32;3.85;;;;;;;22.33;60.40;99415.03;4421948;32;20129;-91
2023/07/03 05:19:27;;;;;;;9.95;4.47;;;;;;;22.56;60.40;99410.38;4422184;32;20106;-92
2023/07/03 05:21:53;;;;;;;7.80;4.07;;;;;;;22.80;60.43;99425.16;4411850;32;20166;-92
2023/07/03 05:24:18;;;;;;;11.45;3.95;;;;;;;22.76;60.42;99421.91;4414720;32;20124;-90
2023/07/03 05:26:44;;;;;;;8.30;3.50;;;;;;;22.79;60.42;99423.47;4416059;32;20129;-92
2023/07/03 05:29:10;;;;;;;6.47;3.47;;;;;;;22.73;60.42;99424.00;4412920;32;20171;-91
2023/07/03 05:31:35;;;;;;;7.62;3.80;;;;;;;22.89;60.43;99427.84;4411452;32;20141;-91
2023/07/03 05:34:01;;;;;;;6.68;3.70;;;;;;;22.94;60.42;99432.75;4398757;32;20101;-91
2023/07/03 05:36:30;;;;;;;7.07;3.72;;;;;;;23.16;60.44;99424.56;4423836;32;20363;-91
2023/07/03 05:39:04;;;;;;;9.35;3.87;;;;;;;23.26;60.44;99433.41;4424252;32;20110;-92
2023/07/03 05:41:30;;;;;;;8.73;3.97;;;;;;;23.28;60.45;99436.75;4411362;32;20128;-91
2023/07/03 05:43:55;;;;;;;5.90;3.33;;;;;;;23.46;60.45;99439.56;4423924;32;20097;-90
2023/07/03 05:46:20;;;;;;;7.25;3.60;;;;;;;23.55;60.46;99446.69;4424508;32;20138;-91
2023/07/03 05:48:46;;;;;;;8.18;3.45;;;;;;;23.58;60.46;99446.44;4423943;32;20097;-91
2023/07/03 05:51:12;;;;;;;8.77;4.05;;;;;;;23.77;60.47;99436.81;4410879;32;20120;-91
2023/07/03 05:53:37;;;;;;;5.78;3.58;;;;;;;23.99;60.48;99441.00;4423969;32;20450;-91
2023/07/03 05:56:03;;;;;;;7.15;4.00;;;;;;;24.05;60.49;99438.59;4410748;32;20158;-90
2023/07/03 05:58:28;;;;;;;8.82;4.12;;;;;;;24.00;60.48;99442.66;4423514;32;20098;-90
2023/07/03 06:00:54;;;;;;;9.10;4.03;;;;;;;24.05;60.49;99445.75;4410821;32;20430;-90
2023/07/03 06:03:20;;;;;;;7.93;3.95;;;;;;;24.04;60.48;99455.53;4398342;32;20112;-91
2023/07/03 06:05:45;;;;;;;7.07;3.22;;;;;;;24.23;60.49;99459.16;4410702;32;20442;-91
2023/07/03 06:08:11;;;;;;;8.93;4.22;;;;;;;24.40;60.51;99456.62;4410749;32;20153;-90
2023/07/03 06:10:37;;;;;;;8.77;3.90;;;;;;;24.43;60.50;99456.34;4410683;32;20106;-90
2023/07/03 06:13:04;;;;;;;6.75;3.97;;;;;;;24.70;60.52;99455.53;4410345;32;20101;-90
2023/07/03 06:15:29;;;;;;;5.32;3.28;;;;;;;24.70;60.52;99447.56;4423613;32;20110;-90
2023/07/03 06:17:56;;;;;;;9.73;3.92;;;;;;;24.97;60.53;99451.22;4410528;32;20145;-91
2023/07/03 06:20:21;;;;;;;8.20;4.03;;;;;;;24.95;60.53;99448.69;4410995;32;20142;-89
2023/07/03 06:22:47;;;;;;;10.90;3.55;;;;;;;25.02;60.54;99441.81;4423604;32;20098;-91
2023/07/03 06:25:12;;;;;;;9.90;3.90;;;;;;;25.17;60.55;99447.50;4423076;32;20113;-91
2023/07/03 06:27:38;;;;;;;7.62;3.83;;;;;;;25.41;60.56;99452.25;4410508;32;20125;-91
2023/07/03 06:30:04;;;;;;;5.60;2.95;;;;;;;25.31;60.55;99440.81;4423472;32;20093;-91
2023/07/03 06:32:29;;;;;;;7.37;3.62;;;;;;;25.54;60.57;99446.53;4410183;32;20117;-90
2023/07/03 06:34:55;;;;;;;8.88;3.87;;;;;;;25.49;60.56;99438.16;4423210;32;20435;-91
2023/07/03 06:37:21;;;;;;;5.53;3.47;;;;;;;25.65;60.57;99436.50;4423243;32;20105;-90
2023/07/03 06:39:46;;;;;;;6.07;3.20;;;;;;;26.01;60.59;99434.63;4423710;32;20119;-91
2023/07/03 06:42:11;;;;;;;9.82;3.45;;;;;;;25.99;60.59;99428.63;4410474;32;20086;-91
2023/07/03 06:44:37;;;;;;;7.97;4.03;;;;;;;26.28;60.60;99427.53;4410442;32;20105;-90
2023/07/03 06:47:03;;;;;;;8.35;3.87;;;;;;;26.50;60.61;99435.03;4410467;32;20191;-90
2023/07/03 06:49:29;;;;;;;9.98;3.40;;;;;;;26.75;60.63;99433.31;4410521;32;20133;-90
2023/07/03 06:51:56;;;;;;;7.30;3.60;;;;;;;27.03;60.65;99435.78;4423499;32;20090;-91
2023/07/03 06:54:21;;;;;;;9.70;3.08;;;;;;;27.45;60.66;99431.22;4410659;32;20151;-91
2023/07/03 06:56:47;;;;;;;8.70;4.12;;;;;;;28.00;60.68;99435.13;4410566;32;20386;-91
2023/07/03 06:59:12;;;;;;;7.35;3.80;;;;;;;28.13;60.69;99427.41;4410673;32;20172;-90
2023/07/03 07:01:40;;;;;;;8.98;4.07;;;;;;;28.27;60.70;99434.78;4423461;32;20401;-90
2023/07/03 07:04:05;;;;;;;8.32;3.53;;;;;;;28.57;60.72;99429.69;4410501;32;20148;-90
2023/07/03 07:06:30;;;;;;;6.50;3.95;;;;;;;28.59;60.72;99435.69;4410574;32;20173;-91
2023/07/03 07:08:56;;;;;;;5.87;3.78;;;;;;;28.43;60.71;99432.06;4412051;32;20133;-91
2023/07/03 07:11:26;;;;;;;6.70;3.28;;;;;;;28.64;60.72;99434.19;4413792;32;20078;-91
2023/07/03 07:13:52;;;;;;;8.93;3.80;;;;;;;28.67;60.72;99433.00;4399157;32;20530;-91
2023/07/03 07:16:28;;;;;;;7.50;3.97;;;;;;;28.92;60.73;99431.09;4410510;32;20150;-91
2023/07/03 07:18:54;;;;;;;6.43;3.60;;;;;;;28.93;60.75;99433.59;4410365;32;20109;-91
2023/07/03 07:21:20;;;;;;;6.25;3.70;;;;;;;29.31;60.75;99431.03;4397902;32;20093;-91
2023/07/03 07:23:49;;;;;;;10.73;3.80;;;;;;;29.22;60.75;99429.44;4410189;32;20391;-91
2023/07/03 07:26:14;;;;;;;6.17;4.10;;;;;;;29.31;60.75;99423.00;4397786;32;20525;-90
2023/07/03 07:28:40;;;;;;;7.45;4.28;;;;;;;29.39;60.76;99427.50;4410500;32;20090;-90
2023/07/03 07:31:05;;;;;;;6.70;4.07;;;;;;;29.43;60.77;99426.12;4410448;32;20486;-91
2023/07/03 07:33:31;;;;;;;7.22;3.92;;;;;;;29.47;60.76;99422.09;4423047;32;20148;-90
2023/07/03 07:35:56;;;;;;;10.35;4.15;;;;;;;29.57;60.78;99420.00;4422984;32;20097;-90
2023/07/03 07:38:21;;;;;;;10.15;4.97;;;;;;;29.72;60.79;99428.13;4410005;32;20184;-90
2023/07/03 07:40:48;;;;;;;8.73;4.28;;;;;;;29.60;60.77;99427.72;4410308;32;20112;-90
2023/07/03 07:43:14;;;;;;;11.80;4.72;;;;;;;29.69;60.78;99418.59;4397315;32;20426;-90
2023/07/03 07:45:39;;;;;;;8.15;4.15;;;;;;;29.63;60.77;99424.69;4397023;32;20247;-91
2023/07/03 07:48:05;;;;;;;8.48;4.75;;;;;;;29.41;60.77;99431.66;4422960;32;20181;-90
2023/07/03 07:50:34;;;;;;;8.30;4.70;;;;;;;29.36;60.76;99434.06;4422972;32;20175;-90
2023/07/03 07:52:59;;;;;;;12.93;4.55;;;;;;;29.42;60.77;99427.13;4410176;32;20266;-90
2023/07/03 07:55:25;;;;;;;8.43;4.37;;;;;;;29.70;60.78;99436.34;4410053;32;20113;-90
2023/07/03 07:57:51;;;;;;;8.63;5.60;;;;;;;29.84;60.79;99426.69;4407225;32;20141;-89
2023/07/03 08:00:17;;;;;;;8.80;5.80;;;;;;;29.57;60.78;99436.09;4394872;32;20121;-90
2023/07/03 08:02:42;;;;;;;9.20;4.93;;;;;;;29.71;60.78;99445.22;4407143;32;20144;-89
2023/07/03 08:05:08;;;;;;;8.80;5.37;;;;;;;29.64;60.79;99437.06;4407308;32;20129;-90
2023/07/03 08:07:34;;;;;;;9.20;5.78;;;;;;;29.92;60.79;99434.66;4407453;32;20423;-89
2023/07/03 08:09:59;;;;;;;11.30;5.80;;;;;;;30.17;60.80;99435.31;4394754;32;20132;-89
2023/07/03 08:12:25;;;;;;;11.00;5.95;;;;;;;30.17;60.80;99428.09;4407118;32;20132;-89
2023/07/03 08:14:50;;;;;;;10.98;6.12;;;;;;;30.01;60.80;99432.72;4407271;32;20510;-89
2023/07/03 08:17:16;;;;;;;10.20;5.70;;;;;;;30.15;60.81;99438.19;4408127;32;20082;-90
2023/07/03 08:19:41;;;;;;;10.82;5.82;;;;;;;30.04;60.81;99437.75;4406781;32;20303;-91
2023/07/03 08:22:07;;;;;;;13.15;6.20;;;;;;;30.02;60.79;99445.97;4394559;32;20175;-90
2023/07/03 08:24:32;;;;;;;9.50;6.00;;;;;;;29.99;60.80;99449.03;4407190;32;20126;-90
2023/07/03 08:26:58;;;;;;;11.82;6.45;;;;;;;29.96;60.79;99444.03;4394352;32;20094;-90
2023/07/03 08:29:23;;;;;;;9.68;6.22;;;;;;;29.99;60.80;99445.50;4407026;32;20115;-89
2023/07/03 08:31:48;;;;;;;13.68;6.15;;;;;;;30.06;60.80;99451.87;4406914;32;20399;-89
2023/07/03 08:34:14;;;;;;;8.88;6.20;;;;;;;30.20;60.80;99451.03;4394015;32;20109;-90
2023/07/03 08:36:39;;;;;;;11.77;6.32;;;;;;;30.15;60.81;99448.91;4394160;32;20140;-90
2023/07/03 08:39:05;;;;;;;12.80;6.32;;;;;;;30.40;60.82;99449.50;4394090;32;20629;-90
2023/07/03 08:41:37;;;;;;;12.35;6.95;;;;;;;30.55;60.83;99449.53;4406982;32;20107;-91
2023/07/03 08:44:02;;;;;;;13.18;7.80;;;;;;;30.65;60.83;99444.72;4394584;32;20114;-90
2023/07/03 08:46:29;;;;;;;11.80;7.32;;;;;;;30.46;60.82;99451.44;4406977;32;20449;-90
2023/07/03 08:48:56;;;;;;;11.77;6.62;;;;;;;30.37;60.82;99454.41;4394320;32;20087;-90
2023/07/03 08:51:23;;;;;;;12.65;6.97;;;;;;;30.38;60.82;99453.41;4394412;32;20102;-89
2023/07/03 08:53:52;;;;;;;12.07;7.10;;;;;;;30.71;60.84;99456.59;4395868;32;20098;-89
2023/07/03 08:56:22;;;;;;;14.77;6.87;;;;;;;30.77;60.84;99456.69;4396500;32;20098;-89
2023/07/03 08:58:52;;;;;;;13.60;7.75;;;;;;;30.83;60.85;99450.56;4409021;32;20161;-88
2023/07/03 09:01:17;;;;;;;14.77;7.70;;;;;;;30.87;60.85;99452.87;4396170;32;20150;-91
2023/07/03 09:03:55;;;;;;;11.53;7.10;;;;;;;30.82;60.84;99466.87;4408532;32;20136;-88
2023/07/03 09:06:27;;;;;;;13.15;7.85;;;;;;;30.60;60.84;99463.22;4409778;32;20239;-88
2023/07/03 09:09:07;;;;;;;12.23;7.57;;;;;;;30.66;60.85;99465.19;4396125;32;20463;-87
2023/07/03 09:11:34;;;;;;;12.27;7.37;;;;;;;30.69;60.84;99464.84;4408721;32;20101;-87
2023/07/03 09:14:00;;;;;;;11.85;7.37;;;;;;;30.75;60.85;99464.09;4409951;32;20093;-88
2023/07/03 09:16:25;;;;;;;11.88;6.68;;;;;;;30.83;60.85;99465.88;4408406;32;20112;-88
2023/07/03 09:18:58;;;;;;;13.43;7.30;;;;;;;30.82;60.84;99459.66;4395993;32;20441;-88
2023/07/03 09:21:24;;;;;;;14.18;7.15;;;;;;;30.77;60.85;99451.31;4408592;32;20166;-87
2023/07/03 09:24:01;;;;;;;15.85;7.57;;;;;;;30.84;60.85;99463.00;4383365;32;20399;-87
2023/07/03 09:26:38;;;;;;;11.10;7.20;;;;;;;30.87;60.85;99460.94;4409850;32;20085;-87
2023/07/03 09:29:03;;;;;;;11.75;6.55;;;;;;;30.68;60.85;99462.34;4396754;32;20089;-87
2023/07/03 09:31:29;;;;;;;10.18;6.82;;;;;;;30.61;60.84;99459.56;4395865;32;20124;-89
2023/07/03 09:33:54;;;;;;;10.63;6.30;;;;;;;30.64;60.84;99467.25;4408395;32;20098;-87
2023/07/03 09:36:24;;;;;;;13.07;6.85;;;;;;;30.59;60.83;99464.25;4395687;32;20185;-88
2023/07/03 09:38:49;;;;;;;;;;;;;;;30.73;60.84;99460.75;4396150;32;20159;-88
2023/07/03 09:41:29;;;;;;;12.70;6.83;;;;;;;30.95;60.85;99468.91;4408493;32;19985;-88
2023/07/03 09:43:55;;;;;;;;;;;;;;;30.89;60.84;99462.41;4408761;32;20097;-87
2023/07/03 09:46:21;;;;;;;13.35;7.18;;;;;;;30.90;60.84;99463.25;4395942;32;19989;-88
2023/07/03 09:48:46;;;;;;;14.15;7.78;;;;;;;30.73;60.84;99466.13;4395955;32;20098;-87
2023/07/03 09:51:26;;;;;;;13.68;7.25;;;;;;;30.57;60.83;99465.47;4408368;32;20352;-87
2023/07/03 09:53:52;;;;;;;12.35;6.80;;;;;;;30.86;60.86;99470.84;4408518;32;20742;-87
2023/07/03 09:56:22;;;;;;;13.85;7.35;;;;;;;30.84;60.85;99462.16;4408217;32;20094;-87
2023/07/03 09:58:49;;;;;;;15.88;8.30;;;;;;;30.99;60.87;99467.50;4396142;32;20474;-87
2023/07/03 10:01:16;;;;;;;9.93;6.62;;;;;;;31.20;60.87;99462.22;4395903;32;20110;-87
2023/07/03 10:03:42;;;;;;;11.68;7.85;;;;;;;31.46;60.89;99465.19;4395877;32;20149;-87
2023/07/03 10:06:15;;;;;;;13.62;8.23;;;;;;;31.63;60.89;99454.22;4407474;32;24543;-87
2023/07/03 10:08:43;;;;;;;17.05;6.75;;;;;;;31.80;60.90;99452.97;4408933;32;20371;-87
2023/07/03 10:11:09;;;;;;;11.15;7.18;;;;;;;31.99;60.90;99452.31;4395883;32;20172;-87
2023/07/03 10:13:42;;;;;;;13.20;7.03;;;;;;;31.99;60.91;99456.88;4408091;32;20122;-87
2023/07/03 10:16:08;;;;;;;13.27;7.60;;;;;;;32.04;60.91;99454.41;4395837;32;20200;-88
2023/07/03 10:18:35;;;;;;;15.50;8.02;;;;;;;32.17;60.91;99442.91;4408188;32;20089;-87
2023/07/03 10:21:04;;;;;;;15.88;8.57;;;;;;;32.34;60.92;99450.53;4395572;32;20140;-87
2023/07/03 10:23:32;;;;;;;11.70;6.85;;;;;;;32.65;60.93;99449.25;4396063;32;20111;-88
2023/07/03 10:26:22;;;;;;;11.85;6.82;;;;;;;32.61;60.94;99440.75;4407946;32;20103;-87
2023/07/03 10:29:22;;;;;;;11.90;7.12;;;;;;;32.57;60.93;99442.19;4391390;32;20455;-87
2023/07/03 10:32:06;;;;;;;11.80;7.00;;;;;;;32.88;60.95;99447.13;4397896;32;20168;-87
2023/07/03 10:34:57;;;;;;;9.82;6.70;;;;;;;33.33;60.97;99433.22;4395874;32;20106;-88
2023/07/03 10:37:23;;;;;;;11.60;6.57;;;;;;;33.40;60.98;99439.50;4408275;32;20152;-87
2023/07/03 10:40:19;;;;;;;9.95;6.95;;;;;;;33.49;60.98;99438.25;4408444;32;20094;-87
2023/07/03 10:42:52;;;;;;;12.57;6.15;;;;;;;33.52;60.98;99432.44;4402081;32;20163;-88
2023/07/03 10:45:18;;;;;;;11.48;6.30;;;;;;;33.32;60.97;99439.66;4408207;32;20109;-89
2023/07/03 10:47:55;;;;;;;12.63;6.20;;;;;;;33.51;60.98;99430.78;4408316;32;20082;-89
2023/07/03 10:50:48;;;;;;;10.57;6.18;;;;;;;33.64;60.99;99440.78;4383664;32;20541;-88
2023/07/03 10:53:23;;;;;;;12.52;6.50;;;;;;;33.68;60.99;99434.75;4404860;32;20098;-88
2023/07/03 10:55:54;;;;;;;10.07;6.40;;;;;;;34.03;61.00;99443.53;4408158;32;20109;-90
2023/07/03 10:58:33;;;;;;;11.57;6.70;;;;;;;34.21;61.01;99440.19;4395470;32;20094;-88
2023/07/03 11:01:28;;;;;;;10.60;5.90;;;;;;;34.13;61.02;99443.13;4396348;32;20125;-88
2023/07/03 11:04:17;;;;;;;10.23;6.40;;;;;;;33.77;60.99;99449.72;4395323;32;20767;-89
2023/07/03 11:07:16;;;;;;;9.68;6.30;;;;;;;33.48;60.98;99453.63;4407859;32;20140;-88
2023/07/03 11:09:46;;;;;;;12.10;6.82;;;;;;;33.02;60.96;99466.09;4397318;32;20121;-89
2023/07/03 11:12:32;;;;;;;14.68;6.93;;;;;;;32.71;60.94;99448.50;4395619;32;20102;-88
2023/07/03 11:14:57;;;;;;;11.50;7.03;;;;;;;32.89;60.95;99456.09;4396606;32;20110;-88
2023/07/03 11:17:38;;;;;;;10.38;7.03;;;;;;;33.05;60.95;99447.63;4409320;32;20094;-89
2023/07/03 11:20:05;;;;;;;11.82;7.20;;;;;;;33.10;60.96;99455.13;4409203;32;20097;-89
2023/07/03 11:22:33;;;;;;;10.88;6.93;;;;;;;33.18;60.96;99449.56;4410121;32;20093;-88
2023/07/03 11:25:16;;;;;;;11.57;7.32;;;;;;;32.98;60.97;99454.88;4408023;32;20106;-90
2023/07/03 11:28:07;;;;;;;10.05;6.82;;;;;;;33.04;60.96;99448.66;4396267;32;20554;-88
2023/07/03 11:30:32;;;;;;;10.68;7.62;;;;;;;33.08;60.96;99449.94;4408311;32;20116;-89
2023/07/03 11:32:59;;;;;;;10.95;7.18;;;;;;;33.36;60.97;99447.16;4395634;32;20094;-89
2023/07/03 11:35:25;;;;;;;11.48;7.28;;;;;;;33.10;60.97;99447.84;4408711;32;20136;-87